Time;durP1;ratioP1;P1;durP2;ratioP2;P2;SDS_P1;SDS_P2;PMS_P1;PMS_P2;Temp;Humidity;BMP_temperature;BMP_pressure;BME280_temperature;BME280_humidity;BME280_pressure;Samples;Min_cycle;Max_cycle;Signal;HPM_P1;HPM_P2
2020/12/14 00:00:23;;;;;;;7.42;6.62;;;;;;;1.99;85.44;99244.03;1807842;79;21069;-66
2020/12/14 00:02:50;;;;;;;8.53;6.80;;;;;;;1.98;85.45;99243.17;1807840;79;21121;-67
2020/12/14 00:05:19;;;;;;;9.50;8.25;;;;;;;1.95;85.57;99243.20;1807810;79;22309;-67
2020/12/14 00:07:46;;;;;;;9.43;7.90;;;;;;;1.97;85.73;99243.19;1807735;79;21073;-67
2020/12/14 00:10:15;;;;;;;8.45;7.45;;;;;;;1.98;85.72;99246.17;1807832;79;21057;-67
2020/12/14 00:12:42;;;;;;;7.85;6.35;;;;;;;1.99;85.57;99251.72;1807772;78;21573;-67
2020/12/14 00:15:10;;;;;;;7.37;6.47;;;;;;;1.97;85.47;99247.04;1807645;79;21569;-67
2020/12/14 00:17:38;;;;;;;8.95;7.10;;;;;;;1.96;85.58;99250.47;1807816;79;21192;-67
2020/12/14 00:20:05;;;;;;;7.45;6.70;;;;;;;1.94;85.69;99250.48;1807774;78;21148;-67
2020/12/14 00:22:33;;;;;;;7.60;6.22;;;;;;;1.94;85.72;99256.05;1807819;79;21058;-67
2020/12/14 00:25:02;;;;;;;7.37;6.08;;;;;;;1.92;85.66;99256.05;1807809;79;21129;-67
2020/12/14 00:27:30;;;;;;;7.08;5.90;;;;;;;1.91;85.68;99252.22;1808045;78;21600;-67
2020/12/14 00:29:57;;;;;;;8.13;6.33;;;;;;;1.92;85.82;99265.47;1807814;79;21192;-67
2020/12/14 00:32:25;;;;;;;7.97;6.30;;;;;;;1.93;85.89;99258.19;1807723;79;21081;-67
2020/12/14 00:34:53;;;;;;;7.10;6.40;;;;;;;1.96;85.85;99263.30;1807817;78;21482;-67
2020/12/14 00:37:21;;;;;;;7.12;6.33;;;;;;;1.97;85.78;99258.15;1807814;79;21113;-67
2020/12/14 00:39:49;;;;;;;9.00;7.25;;;;;;;1.98;85.67;99256.44;1807799;79;21136;-67
2020/12/14 00:42:16;;;;;;;6.50;5.72;;;;;;;2.00;85.74;99261.09;1807816;79;21326;-67
2020/12/14 00:44:44;;;;;;;7.47;6.00;;;;;;;1.99;85.56;99261.98;1807707;79;21061;-66
2020/12/14 00:47:11;;;;;;;7.12;5.95;;;;;;;1.97;85.60;99257.30;1807770;78;21117;-66
2020/12/14 00:49:39;;;;;;;6.70;6.10;;;;;;;1.94;85.57;99256.89;1807878;79;21573;-66
2020/12/14 00:52:06;;;;;;;8.28;6.83;;;;;;;1.91;85.65;99257.34;1807824;78;21045;-66
2020/12/14 00:54:34;;;;;;;6.90;6.20;;;;;;;1.88;85.60;99259.94;1807767;78;21454;-66
2020/12/14 00:57:02;;;;;;;6.60;5.78;;;;;;;1.85;85.65;99260.81;1807728;78;21124;-66
2020/12/14 00:59:30;;;;;;;7.00;5.70;;;;;;;1.85;85.63;99258.25;1807752;79;21113;-66
2020/12/14 01:01:57;;;;;;;6.92;5.85;;;;;;;1.85;85.72;99259.53;1807874;79;21470;-66
2020/12/14 01:04:25;;;;;;;9.00;6.55;;;;;;;1.82;85.67;99250.58;1807887;79;21057;-66
2020/12/14 01:06:53;;;;;;;8.40;6.70;;;;;;;1.80;85.74;99256.62;1807787;79;21462;-66
2020/12/14 01:09:21;;;;;;;7.70;6.90;;;;;;;1.78;85.77;99250.22;1807709;79;21140;-67
2020/12/14 01:11:49;;;;;;;7.58;6.12;;;;;;;1.75;85.79;99248.97;1807681;78;21128;-67
2020/12/14 01:14:18;;;;;;;7.58;6.75;;;;;;;1.78;85.86;99255.34;1807750;79;21065;-67
2020/12/14 01:16:48;;;;;;;7.28;6.08;;;;;;;1.79;85.96;99263.46;1799921;79;21061;-68
2020/12/14 01:19:16;;;;;;;8.15;7.28;;;;;;;1.80;85.96;99258.72;1799988;79;22399;-67
2020/12/14 01:21:45;;;;;;;8.35;6.58;;;;;;;1.82;85.75;99258.70;1799816;79;21061;-66
2020/12/14 01:24:12;;;;;;;7.87;6.40;;;;;;;1.77;85.73;99254.93;1799944;79;21544;-66
2020/12/14 01:26:40;;;;;;;7.58;6.78;;;;;;;1.79;85.75;99252.35;1799784;78;21159;-67
2020/12/14 01:29:08;;;;;;;8.05;6.53;;;;;;;1.78;85.89;99255.78;1799861;79;21045;-66
2020/12/14 01:31:35;;;;;;;7.65;6.72;;;;;;;1.80;85.88;99254.05;1799857;79;22550;-66
2020/12/14 01:34:03;;;;;;;8.48;6.75;;;;;;;1.81;85.86;99251.88;1799765;78;21065;-66
2020/12/14 01:36:30;;;;;;;7.15;5.92;;;;;;;1.82;85.76;99256.99;1799900;78;21117;-66
2020/12/14 01:38:58;;;;;;;8.95;6.50;;;;;;;1.81;85.73;99259.14;1799762;79;21152;-67
2020/12/14 01:41:25;;;;;;;9.10;6.42;;;;;;;1.83;85.87;99254.84;1799822;79;21677;-66
2020/12/14 01:43:53;;;;;;;10.05;7.65;;;;;;;1.86;85.78;99259.10;1799825;79;21358;-66
2020/12/14 01:46:30;;;;;;;10.28;6.85;;;;;;;1.84;85.66;99264.67;1799756;79;21549;-66
2020/12/14 01:49:02;;;;;;;8.83;6.87;;;;;;;1.82;85.55;99256.99;1799866;79;21041;-66
2020/12/14 01:51:30;;;;;;;8.13;6.47;;;;;;;1.78;85.43;99254.50;1799808;79;21135;-66
2020/12/14 01:53:59;;;;;;;8.18;6.85;;;;;;;1.73;85.58;99258.38;1799832;79;21053;-66
2020/12/14 01:56:27;;;;;;;8.55;7.08;;;;;;;1.68;85.72;99258.84;1799833;78;21132;-66
2020/12/14 01:58:55;;;;;;;9.10;7.25;;;;;;;1.66;85.90;99260.14;1799789;78;21061;-66
2020/12/14 02:01:23;;;;;;;9.78;7.53;;;;;;;1.64;85.93;99263.14;1784519;79;21064;-66
2020/12/14 02:03:50;;;;;;;8.05;6.90;;;;;;;1.62;85.91;99261.45;1799987;79;21127;-66
2020/12/14 02:06:18;;;;;;;8.63;7.10;;;;;;;1.58;86.00;99264.50;1799981;79;21132;-66
2020/12/14 02:08:45;;;;;;;8.45;6.90;;;;;;;1.57;86.17;99265.80;1800038;78;23510;-66
2020/12/14 02:11:13;;;;;;;8.88;7.35;;;;;;;1.56;86.22;99267.51;1799950;79;21056;-66
2020/12/14 02:13:40;;;;;;;9.18;7.42;;;;;;;1.55;86.28;99270.94;1799931;78;21156;-66
2020/12/14 02:16:08;;;;;;;9.20;7.00;;;;;;;1.56;86.34;99270.50;1782129;79;21045;-66
2020/12/14 02:18:35;;;;;;;7.78;6.40;;;;;;;1.58;86.30;99267.07;1807950;79;21650;-66
2020/12/14 02:21:02;;;;;;;9.80;7.72;;;;;;;1.59;86.35;99260.23;1807889;79;21354;-66
2020/12/14 02:23:30;;;;;;;8.95;6.67;;;;;;;1.61;86.45;99258.05;1807898;78;21576;-66
2020/12/14 02:25:58;;;;;;;9.70;7.50;;;;;;;1.61;86.35;99262.32;1807892;78;21475;-66
2020/12/14 02:28:25;;;;;;;9.08;7.22;;;;;;;1.59;86.47;99264.08;1807967;78;21489;-66
2020/12/14 02:30:53;;;;;;;11.15;7.50;;;;;;;1.58;86.47;99264.50;1807891;79;21065;-66
2020/12/14 02:33:21;;;;;;;10.05;7.78;;;;;;;1.54;86.39;99265.39;1807960;78;21521;-66
2020/12/14 02:35:48;;;;;;;9.70;7.53;;;;;;;1.51;86.58;99261.56;1807859;79;22030;-66
2020/12/14 02:38:16;;;;;;;9.15;7.42;;;;;;;1.47;86.60;99262.88;1807922;79;21050;-66
2020/12/14 02:40:44;;;;;;;9.88;8.85;;;;;;;1.44;86.87;99262.89;1807879;79;21058;-66
2020/12/14 02:43:11;;;;;;;9.68;7.47;;;;;;;1.43;86.96;99260.77;1807897;79;21557;-66
2020/12/14 02:45:38;;;;;;;8.63;7.03;;;;;;;1.44;87.04;99260.33;1807916;79;21597;-66
2020/12/14 02:48:06;;;;;;;10.28;7.72;;;;;;;1.45;87.05;99262.03;1807817;79;21069;-66
2020/12/14 02:50:35;;;;;;;10.03;8.20;;;;;;;1.42;87.16;99262.05;1807835;79;21077;-66
2020/12/14 02:53:03;;;;;;;10.85;8.33;;;;;;;1.42;87.38;99257.78;1807887;79;21140;-67
2020/12/14 02:55:34;;;;;;;10.78;8.33;;;;;;;1.43;87.41;99256.92;1807827;79;21113;-66
2020/12/14 02:58:01;;;;;;;9.40;7.47;;;;;;;1.43;87.33;99258.62;1807995;79;22181;-67
2020/12/14 03:00:29;;;;;;;9.30;7.67;;;;;;;1.41;87.36;99256.52;1807772;78;21216;-66
2020/12/14 03:02:56;;;;;;;8.90;8.00;;;;;;;1.42;87.49;99259.06;1807849;79;21045;-67
2020/12/14 03:05:24;;;;;;;14.87;9.65;;;;;;;1.45;87.60;99262.89;1807845;79;21054;-66
2020/12/14 03:07:52;;;;;;;10.80;9.00;;;;;;;1.47;87.48;99266.29;1807870;79;21565;-66
2020/12/14 03:10:19;;;;;;;9.75;8.05;;;;;;;1.48;87.44;99265.43;1807853;78;21466;-66
2020/12/14 03:12:47;;;;;;;8.68;7.17;;;;;;;1.50;87.29;99271.83;1807727;78;21073;-66
2020/12/14 03:15:14;;;;;;;10.15;8.00;;;;;;;1.50;87.20;99273.11;1807754;79;21470;-66
2020/12/14 03:17:42;;;;;;;8.83;7.45;;;;;;;1.49;87.33;99272.26;1807874;79;21093;-66
2020/12/14 03:20:10;;;;;;;8.63;7.05;;;;;;;1.51;87.33;99278.22;1807935;79;21568;-66
2020/12/14 03:22:38;;;;;;;8.85;7.40;;;;;;;1.53;87.22;99275.22;1807977;78;22253;-66
2020/12/14 03:25:05;;;;;;;9.28;7.10;;;;;;;1.54;87.02;99279.91;1807776;78;21502;-67
2020/12/14 03:27:33;;;;;;;9.28;7.28;;;;;;;1.56;87.20;99278.19;1778696;79;21121;-67
2020/12/14 03:30:00;;;;;;;9.08;7.95;;;;;;;1.61;87.14;99283.67;1807840;78;21104;-67
2020/12/14 03:32:28;;;;;;;10.00;8.30;;;;;;;1.65;87.03;99285.79;1807921;79;21514;-67
2020/12/14 03:34:55;;;;;;;8.65;7.50;;;;;;;1.68;86.95;99289.19;1807858;78;21474;-67
2020/12/14 03:37:24;;;;;;;9.23;7.17;;;;;;;1.72;86.74;99294.70;1807762;78;22065;-67
2020/12/14 03:39:52;;;;;;;7.75;6.67;;;;;;;1.75;86.54;99292.98;1779221;79;21113;-67
2020/12/14 03:42:20;;;;;;;9.13;7.40;;;;;;;1.77;86.44;99293.83;1807814;79;21517;-67
2020/12/14 03:44:47;;;;;;;9.03;7.20;;;;;;;1.78;86.34;99293.81;1807862;79;21070;-67
2020/12/14 03:47:15;;;;;;;9.70;7.72;;;;;;;1.79;86.24;99298.51;1807925;79;22329;-67
2020/12/14 03:49:43;;;;;;;9.58;8.23;;;;;;;1.79;86.18;99289.53;1807744;78;21064;-67
2020/12/14 03:52:11;;;;;;;8.95;7.25;;;;;;;1.79;86.17;99299.79;1807799;79;21093;-67
2020/12/14 03:54:38;;;;;;;9.10;7.20;;;;;;;1.80;86.11;99302.78;1807751;79;21254;-67
2020/12/14 03:57:06;;;;;;;8.33;6.90;;;;;;;1.80;85.94;99302.31;1807846;78;21066;-67
2020/12/14 03:59:33;;;;;;;9.00;7.30;;;;;;;1.78;85.98;99296.38;1807800;79;23520;-67
2020/12/14 04:02:01;;;;;;;9.93;8.33;;;;;;;1.76;85.74;99294.69;1807769;79;21985;-67
2020/12/14 04:04:29;;;;;;;9.10;7.58;;;;;;;1.70;85.81;99295.15;1807873;79;21576;-66
2020/12/14 04:06:56;;;;;;;9.10;7.58;;;;;;;1.65;85.82;99298.17;1807739;78;21069;-66
2020/12/14 04:09:24;;;;;;;8.65;7.60;;;;;;;1.64;85.89;99302.88;1807894;79;21486;-66
2020/12/14 04:11:52;;;;;;;10.78;7.80;;;;;;;1.64;86.00;99299.47;1807720;78;21195;-66
2020/12/14 04:14:22;;;;;;;9.35;8.20;;;;;;;1.64;86.00;99303.31;1807742;79;21114;-66
2020/12/14 04:16:52;;;;;;;9.65;8.63;;;;;;;1.63;86.00;99301.61;1811120;79;21533;-66
2020/12/14 04:22:00;;;;;;;9.53;7.72;;;;;;;1.63;85.97;99308.88;1873637;76;22863;-67
2020/12/14 04:24:27;;;;;;;10.75;8.00;;;;;;;1.55;85.95;99319.64;1841356;77;20927;-67
2020/12/14 04:26:55;;;;;;;10.55;8.85;;;;;;;1.52;86.20;99323.92;1841561;77;21463;-67
2020/12/14 04:29:23;;;;;;;10.88;8.88;;;;;;;1.54;86.38;99322.20;1841498;78;21018;-67
2020/12/14 04:31:51;;;;;;;10.08;8.85;;;;;;;1.55;86.39;99316.22;1841504;78;21561;-67
2020/12/14 04:34:19;;;;;;;10.90;8.30;;;;;;;1.58;86.28;99322.61;1841579;78;21121;-67
2020/12/14 04:36:48;;;;;;;10.53;9.15;;;;;;;1.59;86.25;99328.16;1841684;78;21474;-67
2020/12/14 04:39:17;;;;;;;10.80;8.85;;;;;;;1.61;86.35;99332.81;1841592;77;21352;-67
2020/12/14 04:41:44;;;;;;;11.93;8.88;;;;;;;1.64;86.38;99330.23;1841478;78;21080;-67
2020/12/14 04:44:12;;;;;;;12.05;8.63;;;;;;;1.67;86.23;99329.78;1841523;78;20987;-67
2020/12/14 04:46:42;;;;;;;9.78;7.87;;;;;;;1.68;86.14;99334.48;1841533;78;21172;-67
2020/12/14 04:49:13;;;;;;;10.03;8.53;;;;;;;1.70;86.12;99336.17;1841663;78;21153;-67
2020/12/14 04:51:40;;;;;;;11.53;8.53;;;;;;;1.72;86.10;99329.32;1841564;78;21230;-67
2020/12/14 04:54:07;;;;;;;10.98;9.20;;;;;;;1.74;86.10;99333.16;1841470;78;21062;-67
2020/12/14 04:56:39;;;;;;;12.33;8.60;;;;;;;1.76;86.04;99330.16;1841516;77;21066;-67
2020/12/14 04:59:10;;;;;;;12.10;9.45;;;;;;;1.77;85.93;99331.00;1841555;78;21061;-67
2020/12/14 05:01:37;;;;;;;11.48;7.95;;;;;;;1.77;85.82;99331.85;1841510;78;21470;-67
2020/12/14 05:04:05;;;;;;;12.73;9.13;;;;;;;1.78;85.82;99338.69;1841541;78;21347;-67
2020/12/14 05:06:50;;;;;;;11.18;8.98;;;;;;;1.77;85.80;99337.41;1841489;78;21563;-67
2020/12/14 05:09:20;;;;;;;10.70;8.88;;;;;;;1.73;85.74;99342.56;1841513;78;21041;-65
2020/12/14 05:11:48;;;;;;;11.55;8.68;;;;;;;1.68;85.76;99341.73;1836640;78;21633;-65
2020/12/14 05:14:20;;;;;;;10.05;8.18;;;;;;;1.68;85.90;99344.73;1808540;79;21079;-65
2020/12/14 05:16:48;;;;;;;11.20;8.08;;;;;;;1.68;85.97;99343.45;1808685;78;22182;-65
2020/12/14 05:19:25;;;;;;;10.50;8.68;;;;;;;1.68;86.05;99348.58;1808430;79;21070;-65
2020/12/14 05:24:35;;;;;;;11.48;9.43;;;;;;;1.70;86.12;99357.96;1873665;75;22720;-67
2020/12/14 05:27:02;;;;;;;11.40;9.08;;;;;;;1.66;86.13;99361.84;1841614;78;21038;-67
2020/12/14 05:29:31;;;;;;;10.95;8.53;;;;;;;1.68;86.11;99360.11;1841579;77;21533;-67
2020/12/14 05:32:11;;;;;;;12.85;9.25;;;;;;;1.68;85.99;99359.69;1841509;77;21112;-67
2020/12/14 05:34:43;;;;;;;10.28;8.68;;;;;;;1.66;86.12;99355.42;1841566;78;21569;-67
2020/12/14 05:37:13;;;;;;;12.13;9.83;;;;;;;1.69;86.29;99360.11;1841853;78;20932;-67
2020/12/14 05:39:42;;;;;;;13.05;9.75;;;;;;;1.71;86.21;99363.94;1841586;78;21104;-67
2020/12/14 05:42:18;;;;;;;11.20;9.13;;;;;;;1.73;86.25;99365.64;1841539;77;21177;-67
2020/12/14 05:44:47;;;;;;;13.60;9.63;;;;;;;1.76;86.10;99366.48;1841520;77;20943;-66
2020/12/14 05:47:30;;;;;;;13.75;10.25;;;;;;;1.80;86.20;99373.30;1841580;77;20955;-65
2020/12/14 05:50:00;;;;;;;189.40;80.97;;;;;;;1.83;86.15;99373.23;1841549;77;21102;-66
2020/12/14 05:52:35;;;;;;;20.68;13.65;;;;;;;1.81;85.85;99374.96;1841723;77;21618;-66
2020/12/14 05:55:04;;;;;;;16.93;11.68;;;;;;;1.80;85.98;99379.70;1811636;78;22858;-66
2020/12/14 05:57:36;;;;;;;14.18;10.65;;;;;;;1.77;85.81;99386.98;1838470;76;21140;-65
2020/12/14 06:00:10;;;;;;;15.70;11.40;;;;;;;1.74;85.79;99390.84;1841556;78;21077;-66
2020/12/14 06:02:39;;;;;;;18.57;13.55;;;;;;;1.72;85.90;99401.54;1841550;77;21196;-66
2020/12/14 06:05:08;;;;;;;18.52;14.00;;;;;;;1.75;86.23;99405.37;1840687;77;21658;-68
2020/12/14 06:07:41;;;;;;;17.30;12.88;;;;;;;1.82;86.29;99409.57;1840486;77;21250;-67
2020/12/14 06:10:25;;;;;;;;;;;;;;;;;;;;;
2020/12/14 06:13:08;;;;;;;12.33;10.08;;;;;;;1.95;86.01;99416.77;1818310;78;21085;-66
2020/12/14 06:18:22;;;;;;;14.63;11.40;;;;;;;2.10;85.70;99419.63;1871406;75;23331;-68
2020/12/14 06:21:01;;;;;;;14.70;10.58;;;;;;;2.07;85.43;99414.09;1839657;77;21145;-68
2020/12/14 06:23:36;;;;;;;12.50;10.03;;;;;;;2.05;85.42;99410.68;1826351;77;21347;-68
2020/12/14 06:26:07;;;;;;;12.05;9.35;;;;;;;2.06;85.30;99415.80;1836707;78;20982;-69
2020/12/14 06:28:35;;;;;;;11.75;9.23;;;;;;;2.01;85.10;99416.69;1841512;78;21514;-69
2020/12/14 06:31:03;;;;;;;13.50;10.38;;;;;;;1.97;85.25;99421.02;1818873;78;21058;-68
2020/12/14 06:33:36;;;;;;;14.20;10.53;;;;;;;1.94;85.27;99421.05;1808325;78;21184;-65
2020/12/14 06:36:21;;;;;;;12.90;11.33;;;;;;;1.90;85.34;99420.64;1808540;78;21501;-67
2020/12/14 06:38:50;;;;;;;14.87;10.05;;;;;;;1.86;85.52;99417.67;1808151;78;21085;-71
2020/12/14 06:41:21;;;;;;;13.38;9.45;;;;;;;1.85;85.46;99414.68;1831635;77;21214;-69
2020/12/14 06:44:05;;;;;;;12.35;10.15;;;;;;;1.85;85.58;99418.95;1758120;81;21139;-68
2020/12/14 06:46:34;;;;;;;15.00;10.70;;;;;;;1.82;85.54;99418.98;1748216;80;21137;-69
2020/12/14 06:49:02;;;;;;;15.95;11.43;;;;;;;1.80;85.77;99408.73;1747668;80;21188;-69
2020/12/14 06:51:51;;;;;;;16.00;12.23;;;;;;;1.77;85.65;99411.77;1750881;82;21097;-67
2020/12/14 06:54:44;;;;;;;13.48;11.15;;;;;;;1.73;85.72;99400.25;1751135;80;21062;-67
2020/12/14 06:57:17;;;;;;;13.53;9.65;;;;;;;1.72;86.03;99404.95;1758924;79;21617;-67
2020/12/14 06:59:52;;;;;;;14.45;11.53;;;;;;;1.75;86.17;99405.80;1779365;79;21186;-67
2020/12/14 07:02:35;;;;;;;19.55;14.30;;;;;;;1.70;86.03;99409.67;1777154;80;22061;-70
2020/12/14 07:05:04;;;;;;;14.05;10.95;;;;;;;1.70;86.49;99410.52;1777730;79;21216;-67
2020/12/14 07:07:34;;;;;;;13.75;10.53;;;;;;;1.79;86.45;99407.48;1779315;80;21197;-66
2020/12/14 07:10:13;;;;;;;14.40;11.05;;;;;;;1.86;86.30;99409.98;1776417;79;21142;-67
2020/12/14 07:12:43;;;;;;;12.95;9.78;;;;;;;1.90;86.12;99414.66;1755023;80;22143;-68
2020/12/14 07:15:28;;;;;;;14.10;10.93;;;;;;;1.94;86.02;99418.47;1754202;81;21365;-69
2020/12/14 07:18:06;;;;;;;15.72;12.33;;;;;;;1.94;85.94;99420.19;1733555;81;21201;-69
2020/12/14 07:20:37;;;;;;;13.18;10.00;;;;;;;1.99;85.84;99429.99;1751283;81;21675;-69
2020/12/14 07:23:07;;;;;;;12.63;10.05;;;;;;;2.06;85.84;99431.20;1734767;82;21236;-66
2020/12/14 07:25:35;;;;;;;15.13;12.00;;;;;;;2.12;85.72;99432.87;1754255;81;21146;-67
2020/12/14 07:28:03;;;;;;;14.18;11.88;;;;;;;2.22;85.52;99435.77;1735130;81;21149;-70
2020/12/14 07:30:31;;;;;;;11.95;9.65;;;;;;;2.26;85.25;99428.46;1738726;80;21224;-68
2020/12/14 07:33:00;;;;;;;10.75;8.70;;;;;;;2.28;84.78;99432.30;1758249;80;21167;-68
2020/12/14 07:35:28;;;;;;;9.70;8.45;;;;;;;2.26;84.65;99433.59;1757999;80;21110;-67
2020/12/14 07:37:56;;;;;;;12.82;10.53;;;;;;;2.25;84.68;99433.61;1750053;82;21157;-72
2020/12/14 07:40:23;;;;;;;12.15;10.32;;;;;;;2.28;84.79;99435.72;1749913;81;21319;-73
2020/12/14 07:42:51;;;;;;;12.60;10.13;;;;;;;2.32;84.59;99437.83;1750180;80;21617;-69
2020/12/14 07:45:26;;;;;;;9.38;8.30;;;;;;;2.35;84.60;99447.64;1750313;80;21494;-69
2020/12/14 07:47:54;;;;;;;10.38;8.45;;;;;;;2.38;84.33;99446.34;1750382;80;21154;-67
2020/12/14 07:50:24;;;;;;;9.58;8.15;;;;;;;2.32;83.94;99451.95;1750458;80;21168;-67
2020/12/14 07:52:55;;;;;;;11.22;8.83;;;;;;;2.28;84.24;99452.40;1750343;80;22002;-68
2020/12/14 07:55:26;;;;;;;10.05;8.80;;;;;;;2.24;84.18;99455.84;1750230;80;21118;-69
2020/12/14 07:57:53;;;;;;;11.57;9.15;;;;;;;2.24;84.34;99457.13;1750332;80;21181;-68
2020/12/14 08:00:24;;;;;;;10.85;8.93;;;;;;;2.29;84.35;99464.80;1721402;80;21174;-69
2020/12/14 08:03:00;;;;;;;11.55;9.63;;;;;;;2.27;84.01;99467.81;1721223;82;21153;-67
2020/12/14 08:05:24;;;;;;;13.28;10.15;;;;;;;2.16;84.04;99468.34;1748880;80;21202;-67
2020/12/14 08:08:03;;;;;;;13.80;10.50;;;;;;;2.15;84.58;99471.34;1721996;82;21554;-70
2020/12/14 08:10:35;;;;;;;14.10;10.53;;;;;;;2.16;84.69;99474.33;1750548;80;21114;-66
2020/12/14 08:13:09;;;;;;;14.07;9.53;;;;;;;2.12;84.52;99479.48;1750517;80;21229;-66
2020/12/14 08:15:38;;;;;;;11.15;9.23;;;;;;;2.08;84.72;99485.06;1747832;80;22208;-67
2020/12/14 08:18:11;;;;;;;11.45;8.90;;;;;;;2.00;84.65;99477.84;1754002;81;21204;-68
2020/12/14 08:20:41;;;;;;;11.25;8.78;;;;;;;1.93;84.87;99478.33;1767458;80;21107;-66
2020/12/14 08:23:24;;;;;;;10.82;8.33;;;;;;;1.93;85.03;99486.02;1767293;79;21154;-69
2020/12/14 08:25:53;;;;;;;13.15;10.55;;;;;;;1.94;85.30;99479.19;1719266;82;21432;-67
2020/12/14 08:28:31;;;;;;;12.93;10.25;;;;;;;1.92;85.42;99490.73;1764685;81;21707;-67
2020/12/14 08:31:00;;;;;;;12.47;10.38;;;;;;;1.96;85.51;99482.59;1763972;81;21378;-68
2020/12/14 08:33:30;;;;;;;14.85;11.03;;;;;;;2.01;85.71;99484.23;1766586;80;21277;-66
2020/12/14 08:36:01;;;;;;;13.95;9.33;;;;;;;2.07;85.35;99479.50;1762457;81;21163;-67
2020/12/14 08:38:29;;;;;;;12.73;9.88;;;;;;;2.09;85.33;99489.33;1716937;81;21063;-72
2020/12/14 08:41:03;;;;;;;12.55;9.98;;;;;;;2.05;85.24;99488.50;1747983;81;21051;-67
2020/12/14 08:43:37;;;;;;;13.88;11.20;;;;;;;1.99;85.20;99492.41;1749489;81;22251;-67
2020/12/14 08:46:14;;;;;;;14.05;10.95;;;;;;;1.96;85.48;99493.70;1760527;80;21177;-68
2020/12/14 08:48:56;;;;;;;12.75;9.70;;;;;;;1.97;85.64;99489.42;1730309;82;21140;-67
2020/12/14 08:51:27;;;;;;;11.20;9.33;;;;;;;1.99;85.57;99491.13;1743461;81;21187;-67
2020/12/14 08:53:56;;;;;;;14.70;11.05;;;;;;;1.96;85.37;99491.14;1761589;80;21665;-68
2020/12/14 08:56:28;;;;;;;12.28;10.98;;;;;;;1.99;85.75;99483.42;1745969;81;22341;-68
2020/12/14 08:59:01;;;;;;;;;;;;;;;2.02;85.55;99478.25;1748748;80;21200;-67
2020/12/14 09:01:31;;;;;;;10.30;8.30;;;;;;;2.01;85.44;99479.11;1747832;82;20489;-68
2020/12/14 09:04:07;;;;;;;10.25;7.95;;;;;;;1.95;85.23;99481.73;1767040;79;21194;-67
2020/12/14 09:06:38;;;;;;;10.45;8.88;;;;;;;1.87;85.38;99482.20;1727686;81;21044;-67
2020/12/14 09:09:13;;;;;;;12.18;9.95;;;;;;;1.84;85.66;99482.22;1767226;80;21370;-67
2020/12/14 09:11:49;;;;;;;12.53;10.38;;;;;;;1.84;85.86;99480.94;1767374;80;21629;-66
2020/12/14 09:14:46;;;;;;;11.50;9.38;;;;;;;1.92;86.03;99489.87;1767480;80;21055;-67
2020/12/14 09:17:27;;;;;;;10.85;8.28;;;;;;;2.00;85.88;99491.52;1751258;80;21118;-70
2020/12/14 09:19:57;;;;;;;8.25;7.25;;;;;;;2.05;85.68;99482.52;1763965;80;21074;-65
2020/12/14 09:22:26;;;;;;;11.10;9.70;;;;;;;2.04;85.54;99482.09;1746019;81;21261;-66
2020/12/14 09:24:55;;;;;;;12.98;10.20;;;;;;;2.01;85.33;99472.70;1735252;81;21134;-65
2020/12/14 09:27:24;;;;;;;13.45;10.68;;;;;;;2.01;85.66;99471.41;1706342;82;21180;-67
2020/12/14 09:29:54;;;;;;;12.13;10.78;;;;;;;2.07;85.87;99470.53;1733266;81;21156;-66
2020/12/14 09:32:24;;;;;;;107.43;48.30;;;;;;;2.17;85.74;99472.61;1752858;80;21190;-65
2020/12/14 09:34:52;;;;;;;18.02;11.40;;;;;;;2.24;85.46;99470.39;1754683;80;21369;-65
2020/12/14 09:37:20;;;;;;;11.93;9.35;;;;;;;2.29;85.09;99472.07;1754630;80;21075;-65
2020/12/14 09:39:49;;;;;;;9.75;8.05;;;;;;;2.30;84.91;99466.50;1735581;82;21280;-67
2020/12/14 09:42:17;;;;;;;10.28;8.38;;;;;;;2.29;84.59;99460.52;1755392;80;21173;-67
2020/12/14 09:44:45;;;;;;;8.78;7.75;;;;;;;2.26;84.31;99465.67;1728780;83;21658;-66
2020/12/14 09:47:13;;;;;;;9.73;7.85;;;;;;;2.23;84.35;99468.69;1730413;81;21399;-68
2020/12/14 09:49:43;;;;;;;8.33;7.33;;;;;;;2.23;84.27;99464.84;1755605;80;21202;-66
2020/12/14 09:52:12;;;;;;;8.00;7.03;;;;;;;2.20;84.31;99471.31;1729073;81;21154;-65
2020/12/14 09:54:40;;;;;;;10.72;9.10;;;;;;;2.21;84.55;99464.00;1755558;80;21186;-65
2020/12/14 09:57:08;;;;;;;10.82;7.97;;;;;;;2.20;84.35;99465.71;1734140;80;21115;-68
2020/12/14 09:59:36;;;;;;;9.25;7.65;;;;;;;2.16;84.48;99460.21;1756068;80;22274;-68
2020/12/14 10:02:08;;;;;;;8.60;6.33;;;;;;;2.17;84.50;99458.50;1754964;81;21143;-67
2020/12/14 10:04:42;;;;;;;9.15;7.12;;;;;;;2.20;84.53;99452.06;1734178;80;21171;-68
2020/12/14 10:07:12;;;;;;;9.25;8.25;;;;;;;2.25;84.70;99454.13;1759783;80;21139;-66
2020/12/14 10:09:40;;;;;;;9.60;7.50;;;;;;;2.29;84.31;99449.41;1726765;80;21567;-66
2020/12/14 10:12:08;;;;;;;10.00;8.53;;;;;;;2.29;84.34;99459.23;1756578;81;21507;-67
2020/12/14 10:14:36;;;;;;;7.08;6.03;;;;;;;2.30;84.27;99454.52;1753230;80;21682;-65
2020/12/14 10:17:04;;;;;;;8.08;6.08;;;;;;;2.30;83.97;99460.94;1752389;80;21000;-67
2020/12/14 10:19:32;;;;;;;8.83;6.45;;;;;;;2.33;84.10;99462.20;1754720;81;21200;-67
2020/12/14 10:22:01;;;;;;;6.17;5.47;;;;;;;2.42;84.20;99459.97;1763649;81;21186;-66
2020/12/14 10:24:28;;;;;;;7.75;6.95;;;;;;;2.46;83.76;99451.81;1767653;81;21348;-67
2020/12/14 10:26:56;;;;;;;7.95;6.53;;;;;;;2.43;83.67;99452.26;1768858;81;21127;-66
2020/12/14 10:29:24;;;;;;;8.65;6.90;;;;;;;2.42;83.84;99458.25;1768960;80;21555;-66
2020/12/14 10:31:52;;;;;;;8.98;7.35;;;;;;;2.47;83.84;99462.07;1768392;80;21190;-66
2020/12/14 10:34:20;;;;;;;7.67;6.53;;;;;;;2.48;83.84;99457.36;1768243;80;21193;-66
2020/12/14 10:36:47;;;;;;;13.30;8.45;;;;;;;2.42;83.94;99454.41;1768540;80;22886;-65
2020/12/14 10:39:16;;;;;;;9.80;7.65;;;;;;;2.37;84.08;99464.31;1768808;79;22118;-65
2020/12/14 10:41:44;;;;;;;8.63;7.60;;;;;;;2.34;84.10;99463.05;1769507;79;21166;-66
2020/12/14 10:44:13;;;;;;;10.32;8.28;;;;;;;2.29;84.08;99456.67;1770950;81;21151;-66
2020/12/14 10:46:41;;;;;;;8.15;6.78;;;;;;;2.29;84.32;99459.67;1768319;80;21434;-66
2020/12/14 10:49:10;;;;;;;9.03;8.13;;;;;;;2.31;84.31;99458.80;1764524;81;21214;-67
2020/12/14 10:51:47;;;;;;;8.83;7.92;;;;;;;2.32;84.23;99453.23;1764375;81;21143;-66
2020/12/14 10:54:11;;;;;;;8.90;7.92;;;;;;;2.31;84.29;99457.95;1763754;81;21226;-67
2020/12/14 10:56:39;;;;;;;9.15;8.23;;;;;;;2.31;84.24;99457.95;1760365;81;21262;-66
2020/12/14 10:59:08;;;;;;;9.63;8.38;;;;;;;2.33;84.23;99463.92;1757760;81;21190;-66
2020/12/14 11:01:36;;;;;;;10.82;8.13;;;;;;;2.36;84.25;99471.59;1747551;80;22777;-67
2020/12/14 11:04:05;;;;;;;9.23;7.90;;;;;;;2.37;84.08;99469.45;1717996;82;21201;-66
2020/12/14 11:06:32;;;;;;;7.70;6.90;;;;;;;2.35;84.24;99475.02;1749730;80;21649;-67
2020/12/14 11:09:00;;;;;;;9.38;7.70;;;;;;;2.36;84.29;99473.73;1746891;82;21566;-67
2020/12/14 11:11:35;;;;;;;8.78;7.67;;;;;;;2.40;84.24;99479.23;1746571;80;22269;-65
2020/12/14 11:14:04;;;;;;;12.23;8.20;;;;;;;2.39;84.04;99478.84;1747511;82;22031;-66
2020/12/14 11:16:37;;;;;;;9.35;7.85;;;;;;;2.35;83.88;99475.87;1745588;82;21237;-66
2020/12/14 11:19:02;;;;;;;11.15;9.45;;;;;;;2.31;83.72;99478.05;1756785;81;21551;-66
2020/12/14 11:21:30;;;;;;;13.00;11.03;;;;;;;2.26;83.84;99472.09;1760631;81;21168;-67
2020/12/14 11:23:58;;;;;;;12.43;10.90;;;;;;;2.25;84.12;99474.66;1762410;81;21046;-67
2020/12/14 11:26:26;;;;;;;12.00;10.70;;;;;;;2.21;84.05;99475.11;1744559;82;21393;-70
2020/12/14 11:28:56;;;;;;;10.82;9.73;;;;;;;2.15;84.20;99470.48;1760615;81;21221;-69
2020/12/14 11:31:25;;;;;;;11.55;9.75;;;;;;;2.10;84.29;99464.53;1743317;82;21127;-67
2020/12/14 11:33:54;;;;;;;13.03;11.40;;;;;;;2.10;84.62;99467.09;1745005;82;21213;-64
2020/12/14 11:36:24;;;;;;;13.48;10.60;;;;;;;2.12;84.92;99467.94;1762883;79;22199;-67
2020/12/14 11:38:52;;;;;;;13.60;10.95;;;;;;;2.17;85.01;99472.61;1741324;82;22296;-66
2020/12/14 11:41:20;;;;;;;11.55;9.60;;;;;;;2.21;85.01;99471.27;1761545;81;22198;-66
2020/12/14 11:43:48;;;;;;;9.68;8.68;;;;;;;2.23;84.69;99475.95;1743613;82;21140;-68
2020/12/14 11:46:17;;;;;;;11.03;9.45;;;;;;;2.23;84.57;99473.39;1744391;82;21166;-65
2020/12/14 11:48:45;;;;;;;13.38;11.57;;;;;;;2.23;84.53;99478.95;1744629;82;21121;-65
2020/12/14 11:51:13;;;;;;;12.85;10.35;;;;;;;2.23;84.69;99481.52;1745629;81;21852;-65
2020/12/14 11:53:41;;;;;;;13.00;11.00;;;;;;;2.22;84.44;99485.80;1745864;81;21179;-64
2020/12/14 11:56:10;;;;;;;12.70;10.32;;;;;;;2.18;84.30;99494.41;1740123;82;21137;-65